Latest Weather Observations for Cummins Airport

IDS60801

Issued at 4:31 pm CST Tuesday 4 August 2015 (issued every 30 minutes, with the page automatically refreshed every 10 minutes)

About weather observations | Map of weather stations | Latest weather observations for SA | Other Formats
Station Details ID: 018217 Name: CUMMINS AERO Lat: -34.25 Lon: 135.71 Height: 60.11 m
Data from the previous 72 hours. | See also: Recent months at Cummins Airport
Date/Time
CST
Temp
°C
App
Temp
°C
Dew
Point
Rel
Hum
%
Delta-T
°C
Wind Press
QNH
hPa
Press
MSL
hPa
Rain
since 9 am
mm
Dir
 
Spd
km/h
Gust
km/h
Spd
kts
Gust
kts
04/04:30pm 11.3 7.2 8.7 84 1.3 W 20 24 11 13 1026.1 1026.2 0.2
04/04:00pm 12.0 7.6 9.0 82 1.5 W 22 28 12 15 1026.4 1026.5 0.2
04/03:30pm 11.7 5.2 9.1 84 1.3 W 33 44 18 24 1026.5 1026.6 0.2
04/03:25pm 12.2 6.8 9.6 84 1.3 W 28 43 15 23 1026.5 1026.6 0.2
04/03:00pm 12.7 9.7 10.6 87 1.1 W 17 22 9 12 1026.6 1026.7 0.2
04/02:30pm 12.6 8.1 8.5 76 2.0 W 22 33 12 18 1026.6 1026.7 0.0
04/02:00pm 11.7 7.0 9.1 84 1.3 WSW 24 32 13 17 1027.1 1027.2 0.0
04/01:30pm 13.1 7.9 7.3 68 2.8 W 24 32 13 17 1027.3 1027.4 0.0
04/01:00pm 12.5 8.1 7.6 72 2.4 WSW 20 26 11 14 1027.7 1027.8 0.0
04/12:30pm 12.5 7.8 7.8 73 2.3 W 22 30 12 16 1028.2 1028.2 0.0
04/12:00pm 12.6 8.9 8.1 74 2.2 W 17 24 9 13 1028.6 1028.6 0.0
04/11:30am 12.1 8.5 8.2 77 1.9 W 17 20 9 11 1029.0 1029.0 0.0
04/11:00am 11.5 9.2 8.9 84 1.3 WNW 11 15 6 8 1029.2 1029.2 0.0
04/10:30am 10.6 8.7 9.2 91 0.7 WNW 9 13 5 7 1029.4 1029.4 0.0
04/10:00am 9.9 9.9 9.8 99 0.1 CALM 0 0 0 0 1029.3 1029.3 0.0
04/09:30am 9.1 7.6 9.1 100 0.0 NE 7 9 4 5 1029.2 1029.2 0.0
04/09:00am 7.3 5.3 7.3 100 0.0 NE 7 9 4 5 1029.2 1029.2 0.8
04/08:30am 5.9 3.6 5.9 100 0.0 NE 7 9 4 5 1029.2 1029.2 0.8
04/08:00am 4.6 1.3 4.5 99 0.0 N 11 13 6 7 1029.1 1029.1 0.6
04/07:30am 5.3 2.5 5.2 99 0.0 NE 9 11 5 6 1029.0 1029.0 0.6
04/07:00am 5.2 3.0 5.1 99 0.0 NNE 6 7 3 4 1028.9 1028.9 0.6
04/06:30am 5.1 2.7 5.1 100 0.0 NE 7 9 4 5 1028.8 1028.8 0.6
04/06:00am 5.3 3.1 5.3 100 0.0 E 6 7 3 4 1028.5 1028.5 0.6
04/05:30am 4.7 1.8 4.7 100 0.0 NNE 9 11 5 6 1028.2 1028.2 0.6
04/05:00am 5.4 3.2 5.3 99 0.0 ENE 6 9 3 5 1028.2 1028.2 0.6
04/04:30am 5.9 4.9 5.8 99 0.0 CALM 0 2 0 1 1028.3 1028.3 0.6
04/04:00am 5.9 4.9 5.8 99 0.0 CALM 0 0 0 0 1028.2 1028.2 0.6
04/03:30am 6.5 4.6 6.5 100 0.0 NNE 6 6 3 3 1028.3 1028.3 0.6
04/03:00am 7.1 6.4 7.1 100 0.0 CALM 0 6 0 3 1028.6 1028.6 0.6
04/02:30am 6.6 5.1 6.6 100 0.0 N 4 7 2 4 1029.0 1029.0 0.4
04/02:00am 6.5 4.4 6.5 100 0.0 N 7 11 4 6 1028.8 1028.8 0.4
04/01:30am 6.2 5.3 6.1 99 0.0 CALM 0 0 0 0 1028.9 1028.9 0.4
04/01:00am 5.4 3.2 5.3 99 0.0 N 6 9 3 5 1029.1 1029.1 0.2
04/12:30am 4.9 3.7 4.8 99 0.0 CALM 0 0 0 0 1029.1 1029.1 0.2
04/12:00am 5.7 4.7 5.6 99 0.0 CALM 0 0 0 0 1029.2 1029.2 0.2
 
Date/Time
CST
Temp
°C
App
Temp
°C
Dew
Point
Rel
Hum
%
Delta-T
°C
Wind Press
QNH
hPa
Press
MSL
hPa
Rain
since 9 am
mm
Dir
 
Spd
km/h
Gust
km/h
Spd
kts
Gust
kts
03/11:30pm 6.5 5.7 6.5 100 0.0 CALM 0 0 0 0 1029.4 1029.4 0.2
03/11:00pm 5.5 3.3 5.4 99 0.0 N 6 7 3 4 1029.5 1029.5 0.0
03/10:30pm 5.2 3.3 5.1 99 0.0 N 4 9 2 5 1029.6 1029.6 0.0
03/10:00pm 4.7 3.5 4.6 99 0.0 CALM 0 0 0 0 1029.5 1029.5 0.0
03/09:30pm 5.4 3.2 5.3 99 0.0 NE 6 7 3 4 1029.4 1029.4 0.0
03/09:00pm 5.6 3.4 5.3 98 0.1 NE 6 6 3 3 1029.2 1029.2 0.0
03/08:30pm 6.8 6.0 6.7 99 0.0 CALM 0 0 0 0 1029.3 1029.3 0.0
03/08:00pm 8.0 6.4 7.9 99 0.0 W 6 9 3 5 1029.3 1029.3 0.0
03/07:30pm 7.4 5.6 7.3 99 0.0 WSW 6 7 3 4 1029.2 1029.2 0.0
03/07:00pm 7.6 5.6 7.3 98 0.1 SSW 7 7 4 4 1028.8 1028.8 0.0
03/06:30pm 8.0 5.7 7.4 96 0.3 SSW 9 13 5 7 1028.8 1028.8 0.0
03/06:00pm 9.4 5.7 8.0 91 0.7 SW 17 22 9 12 1028.6 1028.6 0.0
03/05:30pm 9.8 7.7 8.1 89 0.8 WSW 9 13 5 7 1028.2 1028.2 0.0
03/05:00pm 10.9 7.8 8.7 86 1.1 SW 15 20 8 11 1028.2 1028.2 0.0
03/04:30pm 11.0 8.3 8.8 86 1.1 SW 13 17 7 9 1028.0 1028.1 0.0
03/04:00pm 10.6 5.2 9.4 92 0.6 SSW 28 35 15 19 1028.2 1028.2 0.0
03/03:30pm 13.5 9.5 8.4 71 2.5 SW 19 26 10 14 1027.5 1027.6 0.0
03/03:00pm 12.9 8.4 7.1 68 2.8 SW 20 32 11 17 1027.4 1027.5 0.0
03/02:30pm 12.2 6.0 7.9 75 2.1 SW 30 35 16 19 1027.3 1027.4 0.0
03/02:00pm 12.7 8.3 9.0 78 1.9 SSW 22 32 12 17 1027.2 1027.3 0.0
03/01:30pm 12.5 7.4 7.8 73 2.3 SW 24 32 13 17 1027.4 1027.5 0.0
03/01:00pm 12.8 8.3 10.2 84 1.3 WSW 24 33 13 18 1027.6 1027.7 0.0
03/12:30pm 12.8 9.1 9.6 81 1.6 SSW 19 26 10 14 1027.8 1027.9 0.0
03/12:00pm 12.2 6.6 10.1 87 1.1 SSW 30 39 16 21 1028.2 1028.2 0.0
03/11:30am 11.4 5.5 9.1 86 1.1 SW 30 39 16 21 1028.5 1028.5 0.0
03/11:00am 12.4 8.5 9.4 82 1.5 SW 20 26 11 14 1028.4 1028.4 0.0
03/10:30am 12.1 7.1 9.7 85 1.2 SSW 26 43 14 23 1028.4 1028.4 0.0
03/10:00am 11.3 6.8 9.9 91 0.7 SSW 24 32 13 17 1028.0 1028.1 0.0
03/09:44am 11.4 6.1 9.8 90 0.8 SW 28 46 15 25 1027.8 1027.9 0.0
03/09:30am 11.3 7.1 9.9 91 0.7 WSW 22 32 12 17 1027.6 1027.7 0.0
03/09:00am 10.5 7.0 10.2 98 0.2 SW 19 26 10 14 1027.3 1027.4 1.2
03/08:30am 10.3 6.2 10.1 99 0.1 SW 22 28 12 15 1027.2 1027.3 1.0
03/08:00am 9.8 6.5 9.5 98 0.1 SW 17 20 9 11 1026.8 1026.9 1.0
03/07:30am 8.7 5.8 8.3 97 0.2 SW 13 17 7 9 1026.5 1026.6 1.0
03/07:00am 9.4 5.9 8.9 97 0.2 WSW 17 20 9 11 1026.2 1026.3 1.0
03/06:30am 9.0 7.0 8.7 98 0.1 W 9 11 5 6 1025.9 1026.0 1.0
03/06:00am 8.8 6.6 8.0 95 0.4 WSW 9 15 5 8 1025.7 1025.8 1.0
03/05:30am 9.3 7.4 9.2 99 0.0 SSW 9 11 5 6 1025.6 1025.7 1.0
03/05:00am 9.1 7.1 8.8 98 0.1 WSW 9 13 5 7 1025.4 1025.5 1.0
03/04:30am 8.8 7.1 8.4 97 0.2 S 7 9 4 5 1025.2 1025.3 1.0
03/04:00am 9.9 6.4 8.7 92 0.6 WSW 17 28 9 15 1025.0 1025.1 1.0
03/03:30am 10.3 7.7 7.9 85 1.2 SW 11 17 6 9 1025.0 1025.1 1.0
03/03:00am 10.4 7.0 7.6 83 1.3 WSW 15 22 8 12 1025.4 1025.5 1.0
03/02:30am 10.6 6.5 7.8 83 1.3 SW 19 24 10 13 1025.3 1025.4 1.0
03/02:00am 10.6 6.2 9.0 90 0.8 WSW 22 32 12 17 1025.3 1025.4 1.0
03/01:30am 10.6 6.7 9.4 92 0.6 WSW 20 30 11 16 1025.4 1025.5 1.0
03/01:00am 9.9 7.0 8.3 90 0.8 SW 13 19 7 10 1025.2 1025.3 1.0
03/12:30am 9.9 7.0 8.2 89 0.8 WSW 13 17 7 9 1025.2 1025.3 1.0
03/12:00am 10.6 7.3 9.4 92 0.6 WSW 17 22 9 12 1025.2 1025.3 1.0
 
Date/Time
CST
Temp
°C
App
Temp
°C
Dew
Point
Rel
Hum
%
Delta-T
°C
Wind Press
QNH
hPa
Press
MSL
hPa
Rain
since 9 am
mm
Dir
 
Spd
km/h
Gust
km/h
Spd
kts
Gust
kts
02/11:30pm 10.2 7.8 10.0 99 0.1 W 13 17 7 9 1025.3 1025.4 1.0
02/11:00pm 10.5 7.4 10.3 99 0.1 WSW 17 20 9 11 1025.1 1025.2 1.0
02/10:30pm 10.5 6.8 10.3 99 0.1 W 20 26 11 14 1025.4 1025.5 0.8
02/10:00pm 10.4 6.7 10.2 99 0.1 W 20 28 11 15 1025.2 1025.3 0.2
02/09:30pm 8.7 8.3 8.4 98 0.1 CALM 0 4 0 2 1025.1 1025.2 0.2
02/09:00pm 9.6 8.3 9.1 97 0.2 WNW 6 9 3 5 1024.9 1025.0 0.2
02/08:30pm 8.8 8.5 8.5 98 0.1 CALM 0 0 0 0 1024.7 1024.8 0.2
02/08:00pm 9.2 8.5 8.4 95 0.4 W 2 6 1 3 1024.5 1024.6 0.2
02/07:30pm 8.9 8.1 8.0 94 0.4 SW 2 7 1 4 1024.4 1024.5 0.2
02/07:00pm 9.7 7.2 8.3 91 0.7 WSW 11 15 6 8 1024.1 1024.2 0.2
02/06:30pm 10.0 7.6 8.6 91 0.7 WSW 11 24 6 13 1024.0 1024.1 0.2
02/06:00pm 11.1 7.7 9.0 87 1.0 SW 17 26 9 14 1023.6 1023.7 0.2
02/05:30pm 12.3 8.0 9.3 82 1.5 W 22 37 12 20 1023.4 1023.5 0.2
02/05:00pm 12.6 8.8 8.9 78 1.9 WSW 19 24 10 13 1023.0 1023.1 0.2
02/04:30pm 13.3 8.1 10.1 81 1.6 W 28 35 15 19 1022.8 1022.9 0.2
02/04:00pm 12.7 9.8 10.9 89 0.9 WSW 17 24 9 13 1022.7 1022.8 0.2
02/03:30pm 13.0 7.8 10.2 83 1.4 WSW 28 37 15 20 1022.7 1022.8 0.0
02/03:00pm 13.3 8.3 11.0 86 1.2 WSW 28 35 15 19 1022.4 1022.5 0.0
02/02:42pm 12.6 6.7 10.5 87 1.1 WSW 32 50 17 27 1022.4 1022.5 0.0
02/02:30pm 13.4 7.5 10.4 82 1.6 W 32 41 17 22 1022.2 1022.3 0.0
02/02:00pm 12.2 5.9 10.9 92 0.7 W 35 46 19 25 1022.4 1022.5 0.0
02/01:30pm 13.4 7.0 9.3 76 2.1 W 33 44 18 24 1022.0 1022.1 0.0
02/01:00pm 13.8 7.1 9.6 76 2.2 W 35 44 19 24 1022.1 1022.2 0.0
02/12:30pm 12.7 7.7 10.8 88 1.0 W 28 37 15 20 1022.5 1022.6 0.0
02/12:00pm 13.1 8.4 10.5 84 1.3 WSW 26 35 14 19 1022.6 1022.7 0.0
02/11:30am 13.5 8.6 10.1 80 1.8 W 26 33 14 18 1022.7 1022.8 0.0
02/11:00am 12.7 6.4 7.4 70 2.6 WSW 30 41 16 22 1022.7 1022.8 0.0
02/10:30am 12.1 6.6 7.6 74 2.2 WSW 26 37 14 20 1022.9 1023.0 0.0
02/10:00am 11.5 8.6 9.6 88 1.0 W 15 22 8 12 1022.7 1022.8 0.0
02/09:30am 10.9 8.4 9.8 93 0.6 W 13 17 7 9 1022.4 1022.5 0.0
02/09:00am 10.3 7.9 8.6 89 0.8 W 11 20 6 11 1022.2 1022.3 4.4
02/08:30am 8.9 6.7 8.0 94 0.4 W 9 13 5 7 1021.9 1022.0 4.4
02/08:00am 7.5 5.1 6.8 95 0.3 W 9 13 5 7 1021.7 1021.8 4.4
02/07:30am 6.6 3.6 5.9 95 0.3 NW 11 11 6 6 1021.3 1021.4 4.4
02/07:00am 7.9 6.7 6.5 91 0.6 WNW 2 6 1 3 1021.1 1021.2 4.4
02/06:30am 8.3 5.8 6.6 89 0.8 WNW 9 13 5 7 1020.9 1021.0 4.4
02/06:00am 8.2 5.8 6.8 91 0.6 WNW 9 11 5 6 1020.6 1020.7 4.4
02/05:30am 8.1 6.1 7.0 93 0.5 WSW 7 9 4 5 1020.3 1020.4 4.4
02/05:00am 7.9 5.9 7.0 94 0.4 SW 7 9 4 5 1020.2 1020.3 4.4
02/04:30am 7.9 5.8 6.8 93 0.5 SW 7 11 4 6 1020.2 1020.3 4.4
02/04:00am 8.5 3.1 6.5 87 0.9 WSW 24 33 13 18 1020.4 1020.5 4.4
02/03:30am 8.3 5.6 7.2 93 0.5 WSW 11 17 6 9 1020.2 1020.3 4.4
02/03:00am 7.9 5.7 7.9 100 0.0 W 9 13 5 7 1020.2 1020.3 4.4
02/02:30am 7.7 6.0 7.6 99 0.0 WNW 6 9 3 5 1020.1 1020.2 4.4
02/02:00am 7.8 7.3 7.7 99 0.0 CALM 0 0 0 0 1020.2 1020.3 4.4
02/01:30am 7.9 7.4 7.8 99 0.0 CALM 0 0 0 0 1020.2 1020.3 4.4
02/01:00am 8.2 7.8 8.1 99 0.0 CALM 0 0 0 0 1020.3 1020.4 4.4
02/12:30am 8.2 6.6 8.1 99 0.0 WNW 6 7 3 4 1020.4 1020.5 4.4
02/12:00am 8.1 6.5 8.0 99 0.0 WNW 6 9 3 5 1020.6 1020.7 4.4
 
Date/Time
CST
Temp
°C
App
Temp
°C
Dew
Point
Rel
Hum
%
Delta-T
°C
Wind Press
QNH
hPa
Press
MSL
hPa
Rain
since 9 am
mm
Dir
 
Spd
km/h
Gust
km/h
Spd
kts
Gust
kts
01/11:30pm 8.2 7.8 8.1 99 0.0 CALM 0 0 0 0 1020.3 1020.4 4.4
01/11:00pm 8.2 7.8 8.1 99 0.0 CALM 0 0 0 0 1020.3 1020.4 4.4
01/10:30pm 8.2 7.8 8.1 99 0.0 CALM 0 0 0 0 1020.4 1020.5 4.4
01/10:00pm 8.4 8.0 8.3 99 0.0 CALM 0 0 0 0 1020.2 1020.3 4.4
01/09:30pm 8.4 8.0 8.3 99 0.0 CALM 0 6 0 3 1020.2 1020.3 4.4
01/09:00pm 8.4 7.6 8.3 99 0.0 WNW 2 6 1 3 1020.1 1020.2 4.4
01/08:30pm 8.5 7.0 8.4 99 0.0 WSW 6 7 3 4 1019.7 1019.8 4.4
01/08:00pm 8.5 6.4 8.4 99 0.0 SW 9 13 5 7 1019.5 1019.6 4.4
01/07:30pm 8.6 7.8 8.3 98 0.1 NW 2 11 1 6 1019.0 1019.1 4.4
01/07:00pm 8.6 7.0 8.0 96 0.3 NE 6 7 3 4 1018.3 1018.4 4.4
01/06:30pm 8.6 6.1 8.0 96 0.3 ENE 11 13 6 7 1017.7 1017.7 4.4
01/06:00pm 8.9 7.2 8.5 97 0.2 ENE 7 9 4 5 1017.4 1017.4 3.6
01/05:30pm 9.2 6.2 7.8 91 0.7 SE 13 19 7 10 1017.6 1017.6 3.0
01/05:00pm 9.6 8.1 9.0 96 0.3 SSE 7 9 4 5 1017.6 1017.6 2.2

Other Formats:

Comma delimited format used in spreadsheet applications
http://www.bom.gov.au/fwo/IDS60801/IDS60801.95663.axf

JavaScript Object Notation format (JSON) in row-major order
http://www.bom.gov.au/fwo/IDS60801/IDS60801.95663.json